sensor_id;sensor_type;location;lat;lon;timestamp;temperature;humidity
68701;DHT22;55682;51.114;5.882;2023-06-10T00:01:54;21.93;58.76
68701;DHT22;55682;51.114;5.882;2023-06-10T00:04:25;21.90;58.87
68701;DHT22;55682;51.114;5.882;2023-06-10T00:06:51;21.87;58.87
68701;DHT22;55682;51.114;5.882;2023-06-10T00:09:17;21.85;59.27
68701;DHT22;55682;51.114;5.882;2023-06-10T00:11:44;21.83;59.16
68701;DHT22;55682;51.114;5.882;2023-06-10T00:14:10;21.81;59.23
68701;DHT22;55682;51.114;5.882;2023-06-10T00:16:36;21.80;59.27
68701;DHT22;55682;51.114;5.882;2023-06-10T00:19:03;21.73;59.44
68701;DHT22;55682;51.114;5.882;2023-06-10T00:21:31;21.64;59.68
68701;DHT22;55682;51.114;5.882;2023-06-10T00:24:11;21.57;59.96
68701;DHT22;55682;51.114;5.882;2023-06-10T00:26:38;21.55;59.95
68701;DHT22;55682;51.114;5.882;2023-06-10T00:29:04;21.48;60.19
68701;DHT22;55682;51.114;5.882;2023-06-10T00:31:31;21.48;60.20
68701;DHT22;55682;51.114;5.882;2023-06-10T00:33:57;21.46;60.22
68701;DHT22;55682;51.114;5.882;2023-06-10T00:36:24;21.45;60.26
68701;DHT22;55682;51.114;5.882;2023-06-10T00:38:49;21.40;60.33
68701;DHT22;55682;51.114;5.882;2023-06-10T00:41:15;21.40;60.25
68701;DHT22;55682;51.114;5.882;2023-06-10T00:43:41;21.38;60.43
68701;DHT22;55682;51.114;5.882;2023-06-10T00:46:07;21.37;60.51
68701;DHT22;55682;51.114;5.882;2023-06-10T00:48:33;21.37;60.54
68701;DHT22;55682;51.114;5.882;2023-06-10T00:50:59;21.32;60.62
68701;DHT22;55682;51.114;5.882;2023-06-10T00:53:26;21.30;60.76
68701;DHT22;55682;51.114;5.882;2023-06-10T00:55:52;21.25;60.89
68701;DHT22;55682;51.114;5.882;2023-06-10T00:58:18;21.23;60.89
68701;DHT22;55682;51.114;5.882;2023-06-10T01:00:44;21.19;61.02
68701;DHT22;55682;51.114;5.882;2023-06-10T01:03:11;21.16;61.12
68701;DHT22;55682;51.114;5.882;2023-06-10T01:05:38;21.13;61.26
68701;DHT22;55682;51.114;5.882;2023-06-10T01:11:01;20.99;61.67
68701;DHT22;55682;51.114;5.882;2023-06-10T01:13:30;20.94;61.81
68701;DHT22;55682;51.114;5.882;2023-06-10T01:15:58;20.92;61.85
68701;DHT22;55682;51.114;5.882;2023-06-10T01:18:30;20.90;61.84
68701;DHT22;55682;51.114;5.882;2023-06-10T01:20:57;20.87;62.00
68701;DHT22;55682;51.114;5.882;2023-06-10T01:23:23;20.87;61.99
68701;DHT22;55682;51.114;5.882;2023-06-10T01:26:01;20.88;61.96
68701;DHT22;55682;51.114;5.882;2023-06-10T01:34:09;20.93;61.81
68701;DHT22;55682;51.114;5.882;2023-06-10T01:36:36;20.92;61.88
68701;DHT22;55682;51.114;5.882;2023-06-10T01:39:04;20.85;62.08
68701;DHT22;55682;51.114;5.882;2023-06-10T01:41:32;20.76;62.37
68701;DHT22;55682;51.114;5.882;2023-06-10T01:43:58;20.69;62.60
68701;DHT22;55682;51.114;5.882;2023-06-10T01:46:24;20.62;62.90
68701;DHT22;55682;51.114;5.882;2023-06-10T01:48:49;20.56;63.08
68701;DHT22;55682;51.114;5.882;2023-06-10T01:51:15;20.50;63.28
68701;DHT22;55682;51.114;5.882;2023-06-10T01:53:41;20.48;63.39
68701;DHT22;55682;51.114;5.882;2023-06-10T01:56:06;20.44;63.47
68701;DHT22;55682;51.114;5.882;2023-06-10T01:58:32;20.40;63.62
68701;DHT22;55682;51.114;5.882;2023-06-10T02:00:58;20.39;63.63
68701;DHT22;55682;51.114;5.882;2023-06-10T02:03:23;20.36;63.61
68701;DHT22;55682;51.114;5.882;2023-06-10T02:05:49;20.37;63.60
68701;DHT22;55682;51.114;5.882;2023-06-10T02:08:15;20.35;63.65
68701;DHT22;55682;51.114;5.882;2023-06-10T02:10:41;20.34;63.78
68701;DHT22;55682;51.114;5.882;2023-06-10T02:13:06;20.27;64.00
68701;DHT22;55682;51.114;5.882;2023-06-10T02:15:33;20.20;64.17
68701;DHT22;55682;51.114;5.882;2023-06-10T02:17:59;20.16;64.37
68701;DHT22;55682;51.114;5.882;2023-06-10T02:20:25;20.12;64.59
68701;DHT22;55682;51.114;5.882;2023-06-10T02:22:50;20.04;64.85
68701;DHT22;55682;51.114;5.882;2023-06-10T02:25:16;20.01;65.00
68701;DHT22;55682;51.114;5.882;2023-06-10T02:27:41;19.99;65.03
68701;DHT22;55682;51.114;5.882;2023-06-10T02:30:08;19.96;65.11
68701;DHT22;55682;51.114;5.882;2023-06-10T02:32:36;19.96;65.16
68701;DHT22;55682;51.114;5.882;2023-06-10T02:35:02;19.97;65.11
68701;DHT22;55682;51.114;5.882;2023-06-10T02:37:28;19.89;65.31
68701;DHT22;55682;51.114;5.882;2023-06-10T02:39:55;19.85;65.48
68701;DHT22;55682;51.114;5.882;2023-06-10T02:42:21;19.86;65.38
68701;DHT22;55682;51.114;5.882;2023-06-10T02:44:47;19.83;65.48
68701;DHT22;55682;51.114;5.882;2023-06-10T02:47:20;19.79;65.51
68701;DHT22;55682;51.114;5.882;2023-06-10T02:49:45;19.76;65.62
68701;DHT22;55682;51.114;5.882;2023-06-10T02:52:11;19.73;65.68
68701;DHT22;55682;51.114;5.882;2023-06-10T02:54:37;19.77;65.47
68701;DHT22;55682;51.114;5.882;2023-06-10T02:57:05;19.77;65.40
68701;DHT22;55682;51.114;5.882;2023-06-10T02:59:32;19.80;65.24
68701;DHT22;55682;51.114;5.882;2023-06-10T03:01:58;19.80;65.15
68701;DHT22;55682;51.114;5.882;2023-06-10T03:04:26;19.76;65.27
68701;DHT22;55682;51.114;5.882;2023-06-10T03:07:00;19.73;65.36
68701;DHT22;55682;51.114;5.882;2023-06-10T03:09:31;19.66;65.62
68701;DHT22;55682;51.114;5.882;2023-06-10T03:11:59;19.61;65.69
68701;DHT22;55682;51.114;5.882;2023-06-10T03:14:28;19.50;66.04
68701;DHT22;55682;51.114;5.882;2023-06-10T03:16:54;19.48;65.99
68701;DHT22;55682;51.114;5.882;2023-06-10T03:19:22;19.40;66.14
68701;DHT22;55682;51.114;5.882;2023-06-10T03:22:08;19.38;66.18
68701;DHT22;55682;51.114;5.882;2023-06-10T03:24:36;19.36;66.25
68701;DHT22;55682;51.114;5.882;2023-06-10T03:27:03;19.35;66.26
68701;DHT22;55682;51.114;5.882;2023-06-10T03:29:31;19.33;66.34
68701;DHT22;55682;51.114;5.882;2023-06-10T03:31:56;19.37;66.22
68701;DHT22;55682;51.114;5.882;2023-06-10T03:34:23;19.43;66.02
68701;DHT22;55682;51.114;5.882;2023-06-10T03:36:49;19.45;65.92
68701;DHT22;55682;51.114;5.882;2023-06-10T03:39:15;19.51;65.73
68701;DHT22;55682;51.114;5.882;2023-06-10T03:41:41;19.54;65.63
68701;DHT22;55682;51.114;5.882;2023-06-10T03:44:07;19.52;65.72
68701;DHT22;55682;51.114;5.882;2023-06-10T03:46:32;19.60;65.45
68701;DHT22;55682;51.114;5.882;2023-06-10T03:48:59;19.84;64.79
68701;DHT22;55682;51.114;5.882;2023-06-10T03:51:29;20.17;63.79
68701;DHT22;55682;51.114;5.882;2023-06-10T03:53:55;20.47;62.75
68701;DHT22;55682;51.114;5.882;2023-06-10T03:56:21;20.71;61.94
68701;DHT22;55682;51.114;5.882;2023-06-10T03:58:47;20.93;61.12
68701;DHT22;55682;51.114;5.882;2023-06-10T04:01:13;21.13;60.51
68701;DHT22;55682;51.114;5.882;2023-06-10T04:03:39;21.29;59.80
68701;DHT22;55682;51.114;5.882;2023-06-10T04:06:07;21.48;59.28
68701;DHT22;55682;51.114;5.882;2023-06-10T04:08:33;21.63;58.65
68701;DHT22;55682;51.114;5.882;2023-06-10T04:10:59;21.82;58.20
68701;DHT22;55682;51.114;5.882;2023-06-10T04:13:26;22.07;57.53
68701;DHT22;55682;51.114;5.882;2023-06-10T04:15:55;22.35;56.64
68701;DHT22;55682;51.114;5.882;2023-06-10T04:18:21;22.60;55.85
68701;DHT22;55682;51.114;5.882;2023-06-10T04:20:48;22.87;55.19
68701;DHT22;55682;51.114;5.882;2023-06-10T04:23:13;23.11;54.36
68701;DHT22;55682;51.114;5.882;2023-06-10T04:25:41;23.36;53.62
68701;DHT22;55682;51.114;5.882;2023-06-10T04:28:07;23.65;52.87
68701;DHT22;55682;51.114;5.882;2023-06-10T04:30:33;23.91;52.15
68701;DHT22;55682;51.114;5.882;2023-06-10T04:32:59;24.32;51.12
68701;DHT22;55682;51.114;5.882;2023-06-10T04:35:25;24.75;49.89
68701;DHT22;55682;51.114;5.882;2023-06-10T04:37:54;25.18;48.79
68701;DHT22;55682;51.114;5.882;2023-06-10T04:40:20;25.39;48.03
68701;DHT22;55682;51.114;5.882;2023-06-10T04:42:46;25.52;47.79
68701;DHT22;55682;51.114;5.882;2023-06-10T04:45:12;25.61;47.48
68701;DHT22;55682;51.114;5.882;2023-06-10T04:47:38;25.73;47.15
68701;DHT22;55682;51.114;5.882;2023-06-10T04:50:06;25.97;46.72
68701;DHT22;55682;51.114;5.882;2023-06-10T04:52:32;26.27;45.93
68701;DHT22;55682;51.114;5.882;2023-06-10T04:54:59;26.47;45.30
68701;DHT22;55682;51.114;5.882;2023-06-10T04:57:24;26.63;44.85
68701;DHT22;55682;51.114;5.882;2023-06-10T04:59:52;26.80;44.47
68701;DHT22;55682;51.114;5.882;2023-06-10T05:02:17;26.98;44.14
68701;DHT22;55682;51.114;5.882;2023-06-10T05:04:43;27.24;43.73
68701;DHT22;55682;51.114;5.882;2023-06-10T05:07:08;27.69;42.87
68701;DHT22;55682;51.114;5.882;2023-06-10T05:09:34;28.16;41.71
68701;DHT22;55682;51.114;5.882;2023-06-10T05:12:00;28.37;41.24
68701;DHT22;55682;51.114;5.882;2023-06-10T05:14:25;28.77;40.34
68701;DHT22;55682;51.114;5.882;2023-06-10T05:16:51;28.89;39.88
68701;DHT22;55682;51.114;5.882;2023-06-10T05:19:16;28.78;40.16
68701;DHT22;55682;51.114;5.882;2023-06-10T05:21:44;29.01;39.97
68701;DHT22;55682;51.114;5.882;2023-06-10T05:24:10;29.58;38.97
68701;DHT22;55682;51.114;5.882;2023-06-10T05:26:35;30.07;37.54
68701;DHT22;55682;51.114;5.882;2023-06-10T05:29:05;30.20;37.23
68701;DHT22;55682;51.114;5.882;2023-06-10T05:31:31;30.52;36.90
68701;DHT22;55682;51.114;5.882;2023-06-10T05:33:57;30.72;35.73
68701;DHT22;55682;51.114;5.882;2023-06-10T05:36:23;30.78;35.90
68701;DHT22;55682;51.114;5.882;2023-06-10T05:38:50;30.89;35.84
68701;DHT22;55682;51.114;5.882;2023-06-10T05:41:16;31.16;35.15
68701;DHT22;55682;51.114;5.882;2023-06-10T05:43:41;31.51;34.59
68701;DHT22;55682;51.114;5.882;2023-06-10T05:46:07;31.81;34.06
68701;DHT22;55682;51.114;5.882;2023-06-10T05:48:33;32.05;33.85
68701;DHT22;55682;51.114;5.882;2023-06-10T05:50:58;32.47;32.80
68701;DHT22;55682;51.114;5.882;2023-06-10T05:53:24;32.57;32.48
68701;DHT22;55682;51.114;5.882;2023-06-10T05:55:50;32.46;32.51
68701;DHT22;55682;51.114;5.882;2023-06-10T05:58:16;32.34;32.89
68701;DHT22;55682;51.114;5.882;2023-06-10T06:00:42;32.38;32.15
68701;DHT22;55682;51.114;5.882;2023-06-10T06:03:08;32.38;33.02
68701;DHT22;55682;51.114;5.882;2023-06-10T06:05:34;32.57;32.49
68701;DHT22;55682;51.114;5.882;2023-06-10T06:08:01;32.53;32.22
68701;DHT22;55682;51.114;5.882;2023-06-10T06:10:27;32.44;31.63
68701;DHT22;55682;51.114;5.882;2023-06-10T06:12:53;32.38;32.48
68701;DHT22;55682;51.114;5.882;2023-06-10T06:15:18;32.66;32.11
68701;DHT22;55682;51.114;5.882;2023-06-10T06:17:44;32.96;31.27
68701;DHT22;55682;51.114;5.882;2023-06-10T06:20:10;32.87;30.58
68701;DHT22;55682;51.114;5.882;2023-06-10T06:22:35;32.56;31.63
68701;DHT22;55682;51.114;5.882;2023-06-10T06:25:01;32.54;31.57
68701;DHT22;55682;51.114;5.882;2023-06-10T06:27:27;32.94;30.10
68701;DHT22;55682;51.114;5.882;2023-06-10T06:29:53;33.06;30.54
68701;DHT22;55682;51.114;5.882;2023-06-10T06:32:19;32.99;30.64
68701;DHT22;55682;51.114;5.882;2023-06-10T06:34:44;33.16;30.02
68701;DHT22;55682;51.114;5.882;2023-06-10T06:37:10;33.21;29.15
68701;DHT22;55682;51.114;5.882;2023-06-10T06:39:39;32.96;29.62
68701;DHT22;55682;51.114;5.882;2023-06-10T06:42:05;32.83;30.37
68701;DHT22;55682;51.114;5.882;2023-06-10T06:44:49;33.29;29.17
68701;DHT22;55682;51.114;5.882;2023-06-10T06:47:15;33.64;28.87
68701;DHT22;55682;51.114;5.882;2023-06-10T06:49:46;33.90;28.14
68701;DHT22;55682;51.114;5.882;2023-06-10T06:52:11;33.85;28.71
68701;DHT22;55682;51.114;5.882;2023-06-10T06:54:37;34.11;27.81
68701;DHT22;55682;51.114;5.882;2023-06-10T06:57:03;34.18;26.90
68701;DHT22;55682;51.114;5.882;2023-06-10T06:59:28;34.10;27.64
68701;DHT22;55682;51.114;5.882;2023-06-10T07:01:54;34.35;26.89
68701;DHT22;55682;51.114;5.882;2023-06-10T07:04:20;34.73;25.56
68701;DHT22;55682;51.114;5.882;2023-06-10T07:06:49;34.35;25.71
68701;DHT22;55682;51.114;5.882;2023-06-10T07:09:14;34.44;26.32
68701;DHT22;55682;51.114;5.882;2023-06-10T07:11:40;34.56;25.39
68701;DHT22;55682;51.114;5.882;2023-06-10T07:14:07;34.56;25.57
68701;DHT22;55682;51.114;5.882;2023-06-10T07:16:32;34.61;25.59
68701;DHT22;55682;51.114;5.882;2023-06-10T07:18:58;34.41;26.59
68701;DHT22;55682;51.114;5.882;2023-06-10T07:21:24;33.95;26.18
68701;DHT22;55682;51.114;5.882;2023-06-10T07:23:50;33.90;27.10
68701;DHT22;55682;51.114;5.882;2023-06-10T07:26:19;34.04;26.13
68701;DHT22;55682;51.114;5.882;2023-06-10T07:28:44;34.05;26.66
68701;DHT22;55682;51.114;5.882;2023-06-10T07:31:10;34.06;26.00
68701;DHT22;55682;51.114;5.882;2023-06-10T07:33:37;34.45;25.43
68701;DHT22;55682;51.114;5.882;2023-06-10T07:36:05;34.77;25.68
68701;DHT22;55682;51.114;5.882;2023-06-10T07:38:31;35.53;25.07
68701;DHT22;55682;51.114;5.882;2023-06-10T07:40:56;35.69;24.34
68701;DHT22;55682;51.114;5.882;2023-06-10T07:43:23;35.39;23.93
68701;DHT22;55682;51.114;5.882;2023-06-10T07:45:49;35.53;24.38
68701;DHT22;55682;51.114;5.882;2023-06-10T07:48:15;35.99;24.17
68701;DHT22;55682;51.114;5.882;2023-06-10T07:50:40;36.01;23.27
68701;DHT22;55682;51.114;5.882;2023-06-10T07:53:06;35.97;22.96
68701;DHT22;55682;51.114;5.882;2023-06-10T07:55:32;36.17;23.64
68701;DHT22;55682;51.114;5.882;2023-06-10T07:57:57;36.49;23.04
68701;DHT22;55682;51.114;5.882;2023-06-10T08:00:23;36.51;21.60
68701;DHT22;55682;51.114;5.882;2023-06-10T08:02:49;36.48;22.84
68701;DHT22;55682;51.114;5.882;2023-06-10T08:05:16;36.68;22.49
68701;DHT22;55682;51.114;5.882;2023-06-10T08:07:42;36.75;21.74
68701;DHT22;55682;51.114;5.882;2023-06-10T08:10:09;36.89;21.24
68701;DHT22;55682;51.114;5.882;2023-06-10T08:12:35;37.32;21.37
68701;DHT22;55682;51.114;5.882;2023-06-10T08:15:02;37.85;20.70
68701;DHT22;55682;51.114;5.882;2023-06-10T08:17:30;38.70;18.38
68701;DHT22;55682;51.114;5.882;2023-06-10T08:19:55;38.18;19.43
68701;DHT22;55682;51.114;5.882;2023-06-10T08:22:21;38.08;19.31
68701;DHT22;55682;51.114;5.882;2023-06-10T08:24:47;38.29;19.73
68701;DHT22;55682;51.114;5.882;2023-06-10T08:27:12;38.56;19.67
68701;DHT22;55682;51.114;5.882;2023-06-10T08:29:39;39.49;18.34
68701;DHT22;55682;51.114;5.882;2023-06-10T08:32:06;39.56;17.72
68701;DHT22;55682;51.114;5.882;2023-06-10T08:34:35;39.08;18.10
68701;DHT22;55682;51.114;5.882;2023-06-10T08:37:01;38.23;18.82
68701;DHT22;55682;51.114;5.882;2023-06-10T08:39:27;37.69;19.47
68701;DHT22;55682;51.114;5.882;2023-06-10T08:44:54;38.66;19.34
68701;DHT22;55682;51.114;5.882;2023-06-10T08:47:22;39.00;18.41
68701;DHT22;55682;51.114;5.882;2023-06-10T08:49:48;39.00;18.65
68701;DHT22;55682;51.114;5.882;2023-06-10T08:52:16;38.75;18.28
68701;DHT22;55682;51.114;5.882;2023-06-10T08:54:52;38.40;18.37
68701;DHT22;55682;51.114;5.882;2023-06-10T08:57:20;38.38;19.41
68701;DHT22;55682;51.114;5.882;2023-06-10T08:59:47;38.24;18.98
68701;DHT22;55682;51.114;5.882;2023-06-10T09:02:15;38.17;19.15
68701;DHT22;55682;51.114;5.882;2023-06-10T09:04:44;38.83;18.88
68701;DHT22;55682;51.114;5.882;2023-06-10T09:07:14;39.65;17.83
68701;DHT22;55682;51.114;5.882;2023-06-10T09:09:42;40.58;15.77
68701;DHT22;55682;51.114;5.882;2023-06-10T09:12:08;40.62;16.19
68701;DHT22;55682;51.114;5.882;2023-06-10T09:14:34;41.12;15.87
68701;DHT22;55682;51.114;5.882;2023-06-10T09:16:59;41.28;15.67
68701;DHT22;55682;51.114;5.882;2023-06-10T09:19:27;40.93;16.03
68701;DHT22;55682;51.114;5.882;2023-06-10T09:21:53;41.17;15.78
68701;DHT22;55682;51.114;5.882;2023-06-10T09:24:22;41.34;15.37
68701;DHT22;55682;51.114;5.882;2023-06-10T09:26:47;40.82;15.93
68701;DHT22;55682;51.114;5.882;2023-06-10T09:29:13;40.65;16.81
68701;DHT22;55682;51.114;5.882;2023-06-10T09:31:40;40.35;16.88
68701;DHT22;55682;51.114;5.882;2023-06-10T09:34:11;40.75;16.64
68701;DHT22;55682;51.114;5.882;2023-06-10T09:36:39;41.79;15.25
68701;DHT22;55682;51.114;5.882;2023-06-10T09:39:14;41.94;14.95
68701;DHT22;55682;51.114;5.882;2023-06-10T09:41:41;41.32;15.48
68701;DHT22;55682;51.114;5.882;2023-06-10T09:44:14;41.71;15.44
68701;DHT22;55682;51.114;5.882;2023-06-10T09:46:41;41.73;15.13
68701;DHT22;55682;51.114;5.882;2023-06-10T09:49:06;41.75;15.12
68701;DHT22;55682;51.114;5.882;2023-06-10T09:51:32;41.94;15.19
68701;DHT22;55682;51.114;5.882;2023-06-10T09:53:59;41.58;16.03
68701;DHT22;55682;51.114;5.882;2023-06-10T09:56:37;41.58;16.16
68701;DHT22;55682;51.114;5.882;2023-06-10T09:59:04;41.90;15.56
68701;DHT22;55682;51.114;5.882;2023-06-10T10:01:32;42.17;15.20
68701;DHT22;55682;51.114;5.882;2023-06-10T10:03:59;41.72;15.21
68701;DHT22;55682;51.114;5.882;2023-06-10T10:06:25;41.79;15.10
68701;DHT22;55682;51.114;5.882;2023-06-10T10:08:51;42.20;15.29
68701;DHT22;55682;51.114;5.882;2023-06-10T10:11:19;41.74;15.67
68701;DHT22;55682;51.114;5.882;2023-06-10T10:13:49;41.96;15.29
68701;DHT22;55682;51.114;5.882;2023-06-10T10:16:18;42.61;14.52
68701;DHT22;55682;51.114;5.882;2023-06-10T10:18:55;42.22;14.81
68701;DHT22;55682;51.114;5.882;2023-06-10T10:21:26;42.06;15.11
68701;DHT22;55682;51.114;5.882;2023-06-10T10:26:18;42.32;14.42
68701;DHT22;55682;51.114;5.882;2023-06-10T10:29:07;42.79;14.10
68701;DHT22;55682;51.114;5.882;2023-06-10T10:31:37;43.22;13.77
68701;DHT22;55682;51.114;5.882;2023-06-10T10:34:07;42.90;14.10
68701;DHT22;55682;51.114;5.882;2023-06-10T10:36:35;42.23;14.87
68701;DHT22;55682;51.114;5.882;2023-06-10T10:39:02;42.17;14.28
68701;DHT22;55682;51.114;5.882;2023-06-10T10:41:31;42.11;14.55
68701;DHT22;55682;51.114;5.882;2023-06-10T10:43:58;42.57;13.68
68701;DHT22;55682;51.114;5.882;2023-06-10T10:46:25;43.09;12.95
68701;DHT22;55682;51.114;5.882;2023-06-10T10:48:54;43.76;12.42
68701;DHT22;55682;51.114;5.882;2023-06-10T10:51:23;44.10;11.96
68701;DHT22;55682;51.114;5.882;2023-06-10T10:54:12;42.74;13.41
68701;DHT22;55682;51.114;5.882;2023-06-10T10:57:10;42.24;14.07
68701;DHT22;55682;51.114;5.882;2023-06-10T10:59:52;42.57;13.23
68701;DHT22;55682;51.114;5.882;2023-06-10T11:05:06;41.79;13.71
68701;DHT22;55682;51.114;5.882;2023-06-10T11:07:34;41.60;13.96
68701;DHT22;55682;51.114;5.882;2023-06-10T11:10:11;41.43;13.97
68701;DHT22;55682;51.114;5.882;2023-06-10T11:15:25;39.92;14.82
68701;DHT22;55682;51.114;5.882;2023-06-10T11:18:11;40.45;14.61
68701;DHT22;55682;51.114;5.882;2023-06-10T11:26:18;40.28;15.26
68701;DHT22;55682;51.114;5.882;2023-06-10T11:31:29;39.33;15.13
68701;DHT22;55682;51.114;5.882;2023-06-10T11:34:02;38.78;15.88
68701;DHT22;55682;51.114;5.882;2023-06-10T11:36:29;39.03;15.84
68701;DHT22;55682;51.114;5.882;2023-06-10T11:39:02;38.61;15.26
68701;DHT22;55682;51.114;5.882;2023-06-10T11:41:29;38.51;15.71
68701;DHT22;55682;51.114;5.882;2023-06-10T11:43:57;39.44;14.74
68701;DHT22;55682;51.114;5.882;2023-06-10T11:46:23;40.08;14.65
68701;DHT22;55682;51.114;5.882;2023-06-10T11:48:53;39.64;15.31
68701;DHT22;55682;51.114;5.882;2023-06-10T11:51:19;39.22;15.64
68701;DHT22;55682;51.114;5.882;2023-06-10T11:53:45;38.70;16.25
68701;DHT22;55682;51.114;5.882;2023-06-10T11:56:11;38.76;16.23
68701;DHT22;55682;51.114;5.882;2023-06-10T11:58:37;38.61;16.41
68701;DHT22;55682;51.114;5.882;2023-06-10T12:01:03;37.96;17.31
68701;DHT22;55682;51.114;5.882;2023-06-10T12:03:36;37.33;16.93
68701;DHT22;55682;51.114;5.882;2023-06-10T12:06:06;36.27;18.03
68701;DHT22;55682;51.114;5.882;2023-06-10T12:08:33;35.99;17.70
68701;DHT22;55682;51.114;5.882;2023-06-10T12:11:06;35.58;18.66
68701;DHT22;55682;51.114;5.882;2023-06-10T12:13:32;35.24;18.83
68701;DHT22;55682;51.114;5.882;2023-06-10T12:16:08;34.68;20.06
68701;DHT22;55682;51.114;5.882;2023-06-10T12:18:34;34.82;20.24
68701;DHT22;55682;51.114;5.882;2023-06-10T12:21:00;35.10;20.34
68701;DHT22;55682;51.114;5.882;2023-06-10T12:23:26;35.28;20.10
68701;DHT22;55682;51.114;5.882;2023-06-10T12:25:54;35.38;19.00
68701;DHT22;55682;51.114;5.882;2023-06-10T12:28:24;35.72;18.73
68701;DHT22;55682;51.114;5.882;2023-06-10T12:30:50;35.89;18.62
68701;DHT22;55682;51.114;5.882;2023-06-10T12:33:20;35.60;18.00
68701;DHT22;55682;51.114;5.882;2023-06-10T12:35:51;35.36;18.91
68701;DHT22;55682;51.114;5.882;2023-06-10T12:38:26;35.24;19.38
68701;DHT22;55682;51.114;5.882;2023-06-10T12:41:02;34.66;19.32
68701;DHT22;55682;51.114;5.882;2023-06-10T12:43:31;34.47;18.54
68701;DHT22;55682;51.114;5.882;2023-06-10T12:46:10;34.38;20.53
68701;DHT22;55682;51.114;5.882;2023-06-10T12:48:49;34.83;20.34
68701;DHT22;55682;51.114;5.882;2023-06-10T12:51:16;35.14;18.61
68701;DHT22;55682;51.114;5.882;2023-06-10T12:53:42;35.37;18.86
68701;DHT22;55682;51.114;5.882;2023-06-10T12:56:08;35.19;19.13
68701;DHT22;55682;51.114;5.882;2023-06-10T12:58:34;35.40;18.26
68701;DHT22;55682;51.114;5.882;2023-06-10T13:01:00;35.85;17.87
68701;DHT22;55682;51.114;5.882;2023-06-10T13:03:25;36.37;17.05
68701;DHT22;55682;51.114;5.882;2023-06-10T13:05:51;36.67;15.78
68701;DHT22;55682;51.114;5.882;2023-06-10T13:08:17;36.13;15.87
68701;DHT22;55682;51.114;5.882;2023-06-10T13:10:43;35.68;17.35
68701;DHT22;55682;51.114;5.882;2023-06-10T13:13:08;35.54;18.47
68701;DHT22;55682;51.114;5.882;2023-06-10T13:15:35;35.72;19.58
68701;DHT22;55682;51.114;5.882;2023-06-10T13:18:04;36.09;19.50
68701;DHT22;55682;51.114;5.882;2023-06-10T13:20:30;36.28;19.45
68701;DHT22;55682;51.114;5.882;2023-06-10T13:22:56;36.60;18.67
68701;DHT22;55682;51.114;5.882;2023-06-10T13:25:22;36.74;18.43
68701;DHT22;55682;51.114;5.882;2023-06-10T13:27:48;36.91;17.70
68701;DHT22;55682;51.114;5.882;2023-06-10T13:30:14;36.62;18.39
68701;DHT22;55682;51.114;5.882;2023-06-10T13:32:40;36.24;19.29
68701;DHT22;55682;51.114;5.882;2023-06-10T13:35:06;35.87;20.08
68701;DHT22;55682;51.114;5.882;2023-06-10T13:37:33;35.98;20.35
68701;DHT22;55682;51.114;5.882;2023-06-10T13:39:59;35.54;20.73
68701;DHT22;55682;51.114;5.882;2023-06-10T13:42:25;35.33;20.89
68701;DHT22;55682;51.114;5.882;2023-06-10T13:44:51;35.15;20.76
68701;DHT22;55682;51.114;5.882;2023-06-10T13:47:17;34.41;21.76
68701;DHT22;55682;51.114;5.882;2023-06-10T13:49:43;34.11;22.51
68701;DHT22;55682;51.114;5.882;2023-06-10T13:52:08;33.94;22.82
68701;DHT22;55682;51.114;5.882;2023-06-10T13:54:34;34.04;22.79
68701;DHT22;55682;51.114;5.882;2023-06-10T13:57:03;34.45;22.24
68701;DHT22;55682;51.114;5.882;2023-06-10T13:59:28;34.74;21.96
68701;DHT22;55682;51.114;5.882;2023-06-10T14:01:54;34.94;21.70
68701;DHT22;55682;51.114;5.882;2023-06-10T14:04:20;35.34;21.05
68701;DHT22;55682;51.114;5.882;2023-06-10T14:06:45;35.71;20.06
68701;DHT22;55682;51.114;5.882;2023-06-10T14:09:13;35.71;20.25
68701;DHT22;55682;51.114;5.882;2023-06-10T14:11:39;35.67;20.41
68701;DHT22;55682;51.114;5.882;2023-06-10T14:14:04;35.62;20.96
68701;DHT22;55682;51.114;5.882;2023-06-10T14:16:30;35.63;20.76
68701;DHT22;55682;51.114;5.882;2023-06-10T14:18:56;35.49;21.37
68701;DHT22;55682;51.114;5.882;2023-06-10T14:21:21;35.56;20.22
68701;DHT22;55682;51.114;5.882;2023-06-10T14:23:47;35.04;19.87
68701;DHT22;55682;51.114;5.882;2023-06-10T14:26:14;34.21;19.22
68701;DHT22;55682;51.114;5.882;2023-06-10T14:28:40;34.00;20.55
68701;DHT22;55682;51.114;5.882;2023-06-10T14:31:06;33.90;21.37
68701;DHT22;55682;51.114;5.882;2023-06-10T14:33:32;33.88;21.51
68701;DHT22;55682;51.114;5.882;2023-06-10T14:35:58;33.92;21.63
68701;DHT22;55682;51.114;5.882;2023-06-10T14:38:24;34.32;21.18
68701;DHT22;55682;51.114;5.882;2023-06-10T14:40:49;34.40;22.62
68701;DHT22;55682;51.114;5.882;2023-06-10T14:43:15;34.11;23.06
68701;DHT22;55682;51.114;5.882;2023-06-10T14:45:41;33.87;23.65
68701;DHT22;55682;51.114;5.882;2023-06-10T14:48:07;34.30;23.34
68701;DHT22;55682;51.114;5.882;2023-06-10T14:50:35;34.98;22.53
68701;DHT22;55682;51.114;5.882;2023-06-10T14:53:01;35.43;21.73
68701;DHT22;55682;51.114;5.882;2023-06-10T14:55:27;35.45;22.59
68701;DHT22;55682;51.114;5.882;2023-06-10T14:57:53;34.97;22.34
68701;DHT22;55682;51.114;5.882;2023-06-10T15:00:18;34.70;22.87
68701;DHT22;55682;51.114;5.882;2023-06-10T15:02:47;34.54;22.94
68701;DHT22;55682;51.114;5.882;2023-06-10T15:05:18;34.40;23.00
68701;DHT22;55682;51.114;5.882;2023-06-10T15:07:45;33.82;24.07
68701;DHT22;55682;51.114;5.882;2023-06-10T15:10:11;33.58;24.59
68701;DHT22;55682;51.114;5.882;2023-06-10T15:12:37;33.36;24.88
68701;DHT22;55682;51.114;5.882;2023-06-10T15:15:03;33.06;23.54
68701;DHT22;55682;51.114;5.882;2023-06-10T15:17:29;33.17;23.99
68701;DHT22;55682;51.114;5.882;2023-06-10T15:19:55;33.40;24.04
68701;DHT22;55682;51.114;5.882;2023-06-10T15:22:21;33.17;23.83
68701;DHT22;55682;51.114;5.882;2023-06-10T15:24:46;33.15;24.24
68701;DHT22;55682;51.114;5.882;2023-06-10T15:27:12;33.34;23.72
68701;DHT22;55682;51.114;5.882;2023-06-10T15:29:38;33.29;24.53
68701;DHT22;55682;51.114;5.882;2023-06-10T15:32:04;33.45;24.50
68701;DHT22;55682;51.114;5.882;2023-06-10T15:34:30;33.53;24.04
68701;DHT22;55682;51.114;5.882;2023-06-10T15:36:55;33.50;23.85
68701;DHT22;55682;51.114;5.882;2023-06-10T15:39:21;33.59;24.12
68701;DHT22;55682;51.114;5.882;2023-06-10T15:41:47;33.41;23.79
68701;DHT22;55682;51.114;5.882;2023-06-10T15:44:13;33.47;24.01
68701;DHT22;55682;51.114;5.882;2023-06-10T15:46:38;33.42;23.48
68701;DHT22;55682;51.114;5.882;2023-06-10T15:49:04;33.08;23.85
68701;DHT22;55682;51.114;5.882;2023-06-10T15:51:30;32.88;23.83
68701;DHT22;55682;51.114;5.882;2023-06-10T15:53:56;32.82;23.29
68701;DHT22;55682;51.114;5.882;2023-06-10T15:56:21;32.81;23.76
68701;DHT22;55682;51.114;5.882;2023-06-10T15:58:48;32.90;23.40